Time;durP1;ratioP1;P1;durP2;ratioP2;P2;SDS_P1;SDS_P2;PMS_P1;PMS_P2;Temp;Humidity;BMP_temperature;BMP_pressure;BME280_temperature;BME280_humidity;BME280_pressure;Samples;Min_cycle;Max_cycle;Signal;HPM_P1;HPM_P2
2022/06/09 00:00:15;;;;;;;17.63;12.83;;;;;;;;;;5090622;28;20108;-72
2022/06/09 00:02:43;;;;;;;16.53;11.13;;;;;;;;;;5090823;28;20024;-73
2022/06/09 00:05:10;;;;;;;15.90;11.90;;;;;;;;;;5093857;28;20028;-72
2022/06/09 00:07:37;;;;;;;13.57;10.57;;;;;;;;;;5095954;28;20031;-72
2022/06/09 00:10:08;;;;;;;19.67;12.43;;;;;;;;;;5096265;28;20021;-73
2022/06/09 00:12:35;;;;;;;15.77;11.83;;;;;;;;;;5096070;28;20023;-72
2022/06/09 00:15:03;;;;;;;16.87;11.00;;;;;;;;;;5096061;28;20020;-73
2022/06/09 00:17:31;;;;;;;13.97;10.77;;;;;;;;;;5082428;28;20016;-71
2022/06/09 00:19:57;;;;;;;15.30;10.70;;;;;;;;;;5090823;28;20090;-76
2022/06/09 00:22:24;;;;;;;15.10;10.23;;;;;;;;;;5090604;28;20024;-75
2022/06/09 00:24:51;;;;;;;11.17;9.70;;;;;;;;;;5090896;28;20028;-74
2022/06/09 00:27:17;;;;;;;13.40;10.40;;;;;;;;;;5092984;28;20031;-73
2022/06/09 00:29:44;;;;;;;14.30;10.23;;;;;;;;;;5095720;28;20025;-75
2022/06/09 00:32:14;;;;;;;13.27;9.27;;;;;;;;;;5095982;28;20024;-74
2022/06/09 00:34:41;;;;;;;12.97;9.30;;;;;;;;;;5095582;28;20467;-74
2022/06/09 00:37:07;;;;;;;11.57;8.37;;;;;;;;;;5095751;28;20542;-73
2022/06/09 00:39:34;;;;;;;11.77;7.60;;;;;;;;;;5092611;28;20036;-76
2022/06/09 00:42:01;;;;;;;9.67;7.77;;;;;;;;;;5090435;28;20028;-78
2022/06/09 00:44:29;;;;;;;11.13;7.07;;;;;;;;;;5090328;28;20059;-75
2022/06/09 00:47:02;;;;;;;9.27;7.20;;;;;;;;;;5090148;28;20378;-75
2022/06/09 00:49:49;;;;;;;11.97;7.27;;;;;;;;;;5091770;28;20032;-76
2022/06/09 00:52:18;;;;;;;10.03;7.50;;;;;;;;;;5085099;28;20081;-76
2022/06/09 00:54:50;;;;;;;10.03;6.43;;;;;;;;;;5095509;28;20017;-73
2022/06/09 00:57:20;;;;;;;11.20;7.67;;;;;;;;;;5094814;28;20028;-73
2022/06/09 00:59:50;;;;;;;11.47;7.80;;;;;;;;;;5095047;28;20030;-74
2022/06/09 01:02:18;;;;;;;9.37;6.57;;;;;;;;;;5091946;28;20059;-69
2022/06/09 01:04:46;;;;;;;10.93;6.57;;;;;;;;;;5089784;28;20097;-72
2022/06/09 01:07:15;;;;;;;11.17;8.13;;;;;;;;;;5090044;28;20037;-76
2022/06/09 01:09:42;;;;;;;11.67;8.40;;;;;;;;;;5089520;28;20024;-76
2022/06/09 01:12:27;;;;;;;14.87;8.83;;;;;;;;;;5092769;28;20016;-77
2022/06/09 01:15:00;;;;;;;8.35;7.00;;;;;;;;;;5098603;28;20127;-74
2022/06/09 01:17:30;;;;;;;13.37;7.00;;;;;;;;;;5095047;28;20027;-74
2022/06/09 01:20:06;;;;;;;9.90;8.30;;;;;;;;;;5094533;28;20522;-71
2022/06/09 01:22:44;;;;;;;9.43;7.10;;;;;;;;;;5094639;28;20016;-80
2022/06/09 01:25:29;;;;;;;14.77;7.90;;;;;;;;;;5084125;28;20024;-83
2022/06/09 01:28:08;;;;;;;9.63;7.18;;;;;;;;;;5069670;28;20036;-75
2022/06/09 01:30:47;;;;;;;12.03;8.57;;;;;;;;;;5069228;28;20035;-72
2022/06/09 01:33:23;;;;;;;10.90;7.80;;;;;;;;;;5089351;28;20028;-78
2022/06/09 01:35:50;;;;;;;11.77;6.33;;;;;;;;;;5094293;28;20016;-76
2022/06/09 01:38:17;;;;;;;9.10;6.50;;;;;;;;;;5094373;28;20148;-73
2022/06/09 01:40:44;;;;;;;7.93;6.30;;;;;;;;;;5094258;28;20028;-72
2022/06/09 01:43:11;;;;;;;9.07;6.63;;;;;;;;;;5094112;28;20030;-73
2022/06/09 01:45:45;;;;;;;11.60;7.00;;;;;;;;;;5094112;28;20024;-72
2022/06/09 01:48:21;;;;;;;13.33;7.57;;;;;;;;;;5088072;28;20019;-71
2022/06/09 01:50:48;;;;;;;9.83;7.70;;;;;;;;;;5089136;28;20069;-75
2022/06/09 01:53:24;;;;;;;10.33;8.00;;;;;;;;;;5089179;28;20055;-68
2022/06/09 01:55:54;;;;;;;14.77;7.97;;;;;;;;;;5088514;28;20059;-70
2022/06/09 01:58:24;;;;;;;10.97;8.00;;;;;;;;;;5093166;28;20345;-70
2022/06/09 02:00:53;;;;;;;17.37;7.87;;;;;;;;;;5094223;28;20416;-80
2022/06/09 02:03:24;;;;;;;12.60;7.57;;;;;;;;;;5093832;28;20530;-79
2022/06/09 02:05:51;;;;;;;13.63;9.13;;;;;;;;;;5093820;28;20028;-71
2022/06/09 02:08:21;;;;;;;12.47;7.60;;;;;;;;;;5093258;28;20074;-70
2022/06/09 02:10:49;;;;;;;10.20;6.90;;;;;;;;;;5088486;28;20020;-69
2022/06/09 02:13:29;;;;;;;11.27;7.83;;;;;;;;;;5088522;28;20078;-69
2022/06/09 02:16:06;;;;;;;12.60;7.50;;;;;;;;;;5088545;28;20453;-69
2022/06/09 02:18:36;;;;;;;10.40;7.53;;;;;;;;;;5089379;28;20036;-68
2022/06/09 02:21:10;;;;;;;10.73;7.70;;;;;;;;;;5093435;28;20107;-68
2022/06/09 02:23:37;;;;;;;9.60;7.07;;;;;;;;;;5093757;28;20031;-69
2022/06/09 02:26:04;;;;;;;9.77;7.63;;;;;;;;;;5074907;28;20451;-68
2022/06/09 02:28:32;;;;;;;10.47;7.20;;;;;;;;;;5093251;28;20025;-69
2022/06/09 02:30:59;;;;;;;10.93;7.17;;;;;;;;;;5092045;28;20024;-69
2022/06/09 02:33:25;;;;;;;11.87;7.67;;;;;;;;;;5088378;28;20460;-69
2022/06/09 02:35:53;;;;;;;12.93;6.90;;;;;;;;;;5087825;28;20081;-69
2022/06/09 02:38:20;;;;;;;9.73;7.47;;;;;;;;;;5087541;28;20440;-69
2022/06/09 02:40:47;;;;;;;14.30;7.57;;;;;;;;;;5088368;28;20027;-69
2022/06/09 02:43:14;;;;;;;9.67;7.67;;;;;;;;;;5093387;28;20047;-68
2022/06/09 02:45:41;;;;;;;10.07;7.33;;;;;;;;;;5093268;28;20137;-68
2022/06/09 02:48:08;;;;;;;12.53;9.17;;;;;;;;;;5092899;28;20023;-69
2022/06/09 02:50:35;;;;;;;17.97;12.00;;;;;;;;;;5093135;28;20016;-68
2022/06/09 02:53:02;;;;;;;14.67;10.67;;;;;;;;;;5092110;28;20051;-68
2022/06/09 02:55:29;;;;;;;21.00;11.80;;;;;;;;;;5087882;28;20050;-68
2022/06/09 02:57:55;;;;;;;20.63;13.03;;;;;;;;;;5087848;28;20027;-68
2022/06/09 03:00:22;;;;;;;15.43;11.37;;;;;;;;;;5087533;28;20479;-69
2022/06/09 03:02:56;;;;;;;13.53;10.00;;;;;;;;;;5087586;28;20136;-68
2022/06/09 03:05:23;;;;;;;10.98;8.48;;;;;;;;;;5092944;28;20039;-69
2022/06/09 03:07:50;;;;;;;10.13;7.67;;;;;;;;;;5093036;28;20465;-68
2022/06/09 03:10:17;;;;;;;13.33;7.93;;;;;;;;;;5092802;28;20487;-70
2022/06/09 03:12:44;;;;;;;21.30;10.90;;;;;;;;;;5092574;28;20666;-70
2022/06/09 03:15:12;;;;;;;16.80;11.10;;;;;;;;;;5092942;28;20039;-70
2022/06/09 03:17:39;;;;;;;14.00;8.67;;;;;;;;;;5087270;28;20020;-70
2022/06/09 03:20:06;;;;;;;9.17;7.20;;;;;;;;;;5087379;28;20032;-70
2022/06/09 03:22:33;;;;;;;13.03;8.50;;;;;;;;;;5087197;28;20024;-70
2022/06/09 03:25:00;;;;;;;13.43;8.47;;;;;;;;;;5087443;28;20024;-70
2022/06/09 03:27:26;;;;;;;11.07;7.93;;;;;;;;;;5092140;28;20027;-70
2022/06/09 03:29:53;;;;;;;15.10;8.90;;;;;;;;;;5091881;28;20085;-71
2022/06/09 03:32:21;;;;;;;12.17;8.87;;;;;;;;;;5091977;28;20731;-70
2022/06/09 03:34:48;;;;;;;15.10;9.53;;;;;;;;;;5091816;28;20114;-70
2022/06/09 03:37:15;;;;;;;12.23;9.43;;;;;;;;;;5092426;28;20024;-70
2022/06/09 03:39:43;;;;;;;14.47;10.83;;;;;;;;;;5087723;28;20115;-70
2022/06/09 03:42:10;;;;;;;16.77;11.53;;;;;;;;;;5086643;28;20483;-71
2022/06/09 03:44:36;;;;;;;16.63;11.67;;;;;;;;;;5087322;28;20046;-71
2022/06/09 03:47:03;;;;;;;22.93;13.03;;;;;;;;;;5086973;28;20036;-71
2022/06/09 03:49:30;;;;;;;17.83;12.47;;;;;;;;;;5091163;28;20115;-71
2022/06/09 03:51:56;;;;;;;21.50;12.17;;;;;;;;;;5092302;28;20081;-70
2022/06/09 03:54:23;;;;;;;17.83;14.10;;;;;;;;;;5091699;28;20047;-71
2022/06/09 03:56:51;;;;;;;15.40;12.23;;;;;;;;;;5092145;28;20028;-71
2022/06/09 03:59:18;;;;;;;13.13;9.37;;;;;;;;;;5092024;28;20119;-71
2022/06/09 04:01:45;;;;;;;12.67;8.37;;;;;;;;;;5087937;28;20086;-71
2022/06/09 04:04:11;;;;;;;12.73;9.37;;;;;;;;;;5087044;28;20032;-71
2022/06/09 04:06:38;;;;;;;9.43;7.23;;;;;;;;;;5086618;28;20024;-71
2022/06/09 04:09:05;;;;;;;9.00;7.33;;;;;;;;;;5087066;28;20061;-71
2022/06/09 04:11:32;;;;;;;10.93;7.10;;;;;;;;;;5089965;28;20031;-71
2022/06/09 04:13:59;;;;;;;8.17;5.90;;;;;;;;;;5092065;28;20093;-73
2022/06/09 04:16:34;;;;;;;7.73;6.20;;;;;;;;;;5092003;28;20497;-73
2022/06/09 04:19:01;;;;;;;9.23;6.70;;;;;;;;;;5091703;28;20032;-73
2022/06/09 04:21:29;;;;;;;10.67;6.67;;;;;;;;;;5092111;28;20020;-73
2022/06/09 04:23:57;;;;;;;11.30;6.50;;;;;;;;;;5088730;28;20395;-73
2022/06/09 04:26:25;;;;;;;9.07;6.33;;;;;;;;;;5070361;28;20024;-72
2022/06/09 04:28:51;;;;;;;8.63;6.03;;;;;;;;;;5066388;28;20104;-73
2022/06/09 04:31:19;;;;;;;8.63;5.33;;;;;;;;;;5078162;28;20028;-69
2022/06/09 04:33:45;;;;;;;8.53;6.50;;;;;;;;;;5089576;28;20040;-71
2022/06/09 04:36:13;;;;;;;8.73;6.13;;;;;;;;;;5092039;28;20107;-71
2022/06/09 04:38:40;;;;;;;7.13;5.60;;;;;;;;;;5091905;28;20017;-73
2022/06/09 04:41:11;;;;;;;7.60;5.57;;;;;;;;;;5091605;28;20020;-74
2022/06/09 04:43:39;;;;;;;9.10;6.00;;;;;;;;;;5091997;28;20024;-77
2022/06/09 04:46:05;;;;;;;8.30;6.27;;;;;;;;;;5092634;28;20028;-77
2022/06/09 04:48:32;;;;;;;7.83;5.70;;;;;;;;;;5091104;28;20093;-77
2022/06/09 04:50:59;;;;;;;7.43;6.10;;;;;;;;;;5090758;28;20027;-80
2022/06/09 04:53:26;;;;;;;9.43;5.60;;;;;;;;;;5090348;28;20435;-74
2022/06/09 04:55:53;;;;;;;7.80;5.10;;;;;;;;;;5092684;28;20491;-82
2022/06/09 04:58:19;;;;;;;6.97;5.40;;;;;;;;;;5095521;28;20039;-80
2022/06/09 05:00:46;;;;;;;7.43;5.23;;;;;;;;;;5091793;28;20020;-74
2022/06/09 05:03:13;;;;;;;7.17;5.03;;;;;;;;;;5074707;28;20116;-74
2022/06/09 05:05:41;;;;;;;6.93;5.00;;;;;;;;;;5083214;28;20027;-74
2022/06/09 05:08:08;;;;;;;6.13;4.77;;;;;;;;;;5092626;28;20031;-75
2022/06/09 05:10:35;;;;;;;5.43;4.10;;;;;;;;;;5089754;28;20055;-74
2022/06/09 05:13:05;;;;;;;7.43;4.57;;;;;;;;;;5089621;28;20024;-74
2022/06/09 05:15:33;;;;;;;5.53;3.87;;;;;;;;;;5089457;28;20047;-74
2022/06/09 05:18:00;;;;;;;5.03;4.03;;;;;;;;;;5090855;28;20024;-74
2022/06/09 05:20:27;;;;;;;5.23;4.27;;;;;;;;;;5094584;28;20028;-74
2022/06/09 05:22:53;;;;;;;5.97;4.10;;;;;;;;;;5094804;28;20032;-74
2022/06/09 05:25:20;;;;;;;6.70;4.73;;;;;;;;;;5094921;28;20028;-74
2022/06/09 05:27:47;;;;;;;5.63;4.10;;;;;;;;;;5094660;28;20031;-74
2022/06/09 05:30:16;;;;;;;6.53;5.03;;;;;;;;;;5092499;28;20431;-74
2022/06/09 05:32:42;;;;;;;5.43;4.30;;;;;;;;;;5089284;28;20478;-74
2022/06/09 05:35:12;;;;;;;7.63;4.70;;;;;;;;;;5089158;28;20356;-74
2022/06/09 05:45:59;;;;;;;7.13;5.10;;;;;;;;;;5094480;28;21068;-74
2022/06/09 05:48:27;;;;;;;6.97;4.50;;;;;;;;;;5094427;28;20031;-75
2022/06/09 05:50:54;;;;;;;5.90;4.60;;;;;;;;;;5094601;28;20028;-74
2022/06/09 05:53:21;;;;;;;6.77;4.73;;;;;;;;;;5090633;28;20469;-74
2022/06/09 05:55:48;;;;;;;7.07;4.70;;;;;;;;;;5087668;28;20093;-74
2022/06/09 05:58:15;;;;;;;6.33;4.50;;;;;;;;;;5088376;28;20075;-74
2022/06/09 06:00:42;;;;;;;6.63;5.10;;;;;;;;;;5087978;28;20031;-74
2022/06/09 06:03:11;;;;;;;8.50;4.57;;;;;;;;;;5091404;28;20058;-74
2022/06/09 06:08:23;;;;;;;10.82;5.30;;;;;;;;;;5093784;28;20031;-74
2022/06/09 06:10:50;;;;;;;6.33;4.53;;;;;;;;;;5093512;28;20024;-74
2022/06/09 06:13:16;;;;;;;6.83;4.73;;;;;;;;;;5093957;28;20387;-74
2022/06/09 06:15:43;;;;;;;5.20;4.00;;;;;;;;;;5089879;28;20115;-74
2022/06/09 06:18:10;;;;;;;7.70;5.30;;;;;;;;;;5088338;28;20117;-74
2022/06/09 06:20:37;;;;;;;8.73;5.00;;;;;;;;;;5088373;28;20076;-73
2022/06/09 06:23:03;;;;;;;6.67;5.23;;;;;;;;;;5087837;28;20043;-73
2022/06/09 06:25:30;;;;;;;5.43;4.00;;;;;;;;;;5091102;28;20020;-74
2022/06/09 06:27:58;;;;;;;7.73;5.57;;;;;;;;;;5093534;28;20028;-74
2022/06/09 06:30:25;;;;;;;7.37;4.60;;;;;;;;;;5093533;28;20167;-73
2022/06/09 06:32:52;;;;;;;5.63;4.27;;;;;;;;;;5093554;28;20028;-73
2022/06/09 06:35:19;;;;;;;5.70;4.80;;;;;;;;;;5093163;28;20073;-73
2022/06/09 06:37:45;;;;;;;8.03;4.93;;;;;;;;;;5090033;28;20101;-74
2022/06/09 06:40:13;;;;;;;6.90;4.57;;;;;;;;;;5087663;28;20135;-73
2022/06/09 06:42:40;;;;;;;6.47;4.93;;;;;;;;;;5087923;28;20055;-73
2022/06/09 06:45:07;;;;;;;11.27;4.70;;;;;;;;;;5087500;28;20024;-74
2022/06/09 06:47:34;;;;;;;7.13;4.80;;;;;;;;;;5090244;28;20034;-73
2022/06/09 06:50:00;;;;;;;10.03;5.30;;;;;;;;;;5093290;28;20016;-73
2022/06/09 06:52:27;;;;;;;9.10;4.43;;;;;;;;;;5093213;28;20031;-73
2022/06/09 06:54:54;;;;;;;6.00;4.90;;;;;;;;;;5093047;28;20031;-73
2022/06/09 06:57:21;;;;;;;6.33;4.77;;;;;;;;;;5092512;28;20103;-73
2022/06/09 06:59:47;;;;;;;7.00;5.20;;;;;;;;;;5090257;28;20433;-73
2022/06/09 07:02:14;;;;;;;8.90;4.90;;;;;;;;;;5087275;28;20047;-73
2022/06/09 07:04:41;;;;;;;5.90;4.60;;;;;;;;;;5087443;28;20024;-73
2022/06/09 07:07:07;;;;;;;6.40;4.87;;;;;;;;;;5087162;28;20081;-73
2022/06/09 07:09:34;;;;;;;7.67;5.27;;;;;;;;;;5088739;28;20058;-73
2022/06/09 07:12:01;;;;;;;9.33;5.47;;;;;;;;;;5092868;28;20032;-72
2022/06/09 07:14:27;;;;;;;7.00;4.60;;;;;;;;;;5092678;28;20028;-72
2022/06/09 07:16:54;;;;;;;6.47;4.53;;;;;;;;;;5092694;28;20505;-73
2022/06/09 07:19:21;;;;;;;8.47;5.13;;;;;;;;;;5092195;28;20035;-72
2022/06/09 07:21:47;;;;;;;8.57;4.60;;;;;;;;;;5090463;28;20024;-73
2022/06/09 07:24:14;;;;;;;7.73;4.60;;;;;;;;;;5087167;28;20020;-73
2022/06/09 07:26:41;;;;;;;9.10;4.37;;;;;;;;;;5087124;28;20020;-73
2022/06/09 07:29:08;;;;;;;6.63;4.77;;;;;;;;;;5086779;28;20024;-73
2022/06/09 07:31:34;;;;;;;7.17;4.90;;;;;;;;;;5087800;28;20031;-72
2022/06/09 07:34:01;;;;;;;7.00;4.70;;;;;;;;;;5092494;28;20028;-73
2022/06/09 07:36:28;;;;;;;9.33;5.27;;;;;;;;;;5092232;28;20073;-73
2022/06/09 07:38:55;;;;;;;6.33;4.67;;;;;;;;;;5092316;28;20042;-73
2022/06/09 07:41:22;;;;;;;6.30;4.47;;;;;;;;;;5092594;28;20107;-73
2022/06/09 07:43:49;;;;;;;8.30;4.50;;;;;;;;;;5090442;28;20031;-73
2022/06/09 07:46:16;;;;;;;6.70;4.77;;;;;;;;;;5086576;28;20028;-73
2022/06/09 07:48:45;;;;;;;7.33;4.70;;;;;;;;;;5086831;28;20051;-73
2022/06/09 07:51:12;;;;;;;7.37;4.63;;;;;;;;;;5086914;28;20027;-73
2022/06/09 07:53:39;;;;;;;6.87;4.70;;;;;;;;;;5087434;28;20064;-72
2022/06/09 07:56:06;;;;;;;6.03;4.57;;;;;;;;;;5091979;28;20097;-72
2022/06/09 07:58:33;;;;;;;6.77;4.90;;;;;;;;;;5092234;28;20028;-72
2022/06/09 08:01:00;;;;;;;6.30;4.60;;;;;;;;;;5091870;28;20031;-72
2022/06/09 08:03:27;;;;;;;5.67;4.07;;;;;;;;;;5092190;28;20031;-73
2022/06/09 08:05:54;;;;;;;7.13;4.33;;;;;;;;;;5091336;28;20391;-73
2022/06/09 08:08:21;;;;;;;6.50;4.73;;;;;;;;;;5086222;28;20085;-73
2022/06/09 08:10:49;;;;;;;8.10;5.03;;;;;;;;;;5086732;28;20141;-72
2022/06/09 08:13:17;;;;;;;6.40;4.87;;;;;;;;;;5086673;28;20480;-72
2022/06/09 08:15:44;;;;;;;9.80;5.03;;;;;;;;;;5086742;28;20039;-73
2022/06/09 08:18:11;;;;;;;8.37;4.67;;;;;;;;;;5091848;28;20099;-72
2022/06/09 08:20:40;;;;;;;9.63;5.07;;;;;;;;;;5094577;28;20140;-73
2022/06/09 08:23:12;;;;;;;7.23;4.67;;;;;;;;;;5096296;28;20487;-73
2022/06/09 08:25:39;;;;;;;9.20;5.20;;;;;;;;;;5095960;28;20028;-72
2022/06/09 08:28:07;;;;;;;5.97;4.23;;;;;;;;;;5094825;28;20486;-72
2022/06/09 08:30:34;;;;;;;7.00;4.77;;;;;;;;;;5090511;28;20043;-73
2022/06/09 08:33:01;;;;;;;5.70;3.70;;;;;;;;;;5090151;28;20028;-72
2022/06/09 08:35:28;;;;;;;6.57;3.77;;;;;;;;;;5090407;28;20028;-72
2022/06/09 08:37:55;;;;;;;5.10;3.97;;;;;;;;;;5089983;28;20426;-72
2022/06/09 08:40:24;;;;;;;6.37;4.37;;;;;;;;;;5095225;28;20024;-72
2022/06/09 08:42:57;;;;;;;5.93;4.60;;;;;;;;;;5095713;28;20028;-72
2022/06/09 08:45:28;;;;;;;6.27;4.60;;;;;;;;;;5095635;28;20475;-73
2022/06/09 08:47:55;;;;;;;6.63;4.47;;;;;;;;;;5095545;28;20020;-73
2022/06/09 08:50:24;;;;;;;8.43;4.17;;;;;;;;;;5094939;28;20546;-72
2022/06/09 08:52:56;;;;;;;6.20;4.17;;;;;;;;;;5089563;28;20059;-72
2022/06/09 08:55:25;;;;;;;5.53;3.73;;;;;;;;;;5089674;28;20032;-72
2022/06/09 08:57:54;;;;;;;6.47;3.93;;;;;;;;;;5090001;28;20020;-72
2022/06/09 09:00:22;;;;;;;5.97;3.90;;;;;;;;;;5089469;28;20043;-72
2022/06/09 09:02:52;;;;;;;7.37;4.23;;;;;;;;;;5095062;28;20382;-72
2022/06/09 09:05:19;;;;;;;5.43;4.30;;;;;;;;;;5094965;28;20027;-72
2022/06/09 09:07:48;;;;;;;5.10;3.67;;;;;;;;;;5095128;28;20047;-72
2022/06/09 09:10:21;;;;;;;7.57;5.07;;;;;;;;;;5094788;28;20099;-72
2022/06/09 09:13:01;;;;;;;7.03;4.33;;;;;;;;;;5094007;28;20020;-72
2022/06/09 09:15:34;;;;;;;8.20;5.20;;;;;;;;;;5089682;28;20081;-72
2022/06/09 09:18:23;;;;;;;6.40;4.57;;;;;;;;;;5089732;28;20479;-72
2022/06/09 09:21:10;;;;;;;7.37;4.83;;;;;;;;;;5088671;28;20028;-72
2022/06/09 09:23:47;;;;;;;5.43;3.83;;;;;;;;;;5091382;28;20024;-72
2022/06/09 09:26:23;;;;;;;7.20;4.50;;;;;;;;;;5094775;28;20024;-72
2022/06/09 09:28:51;;;;;;;7.13;5.00;;;;;;;;;;5094543;28;20028;-72
2022/06/09 09:31:30;;;;;;;9.77;5.70;;;;;;;;;;5093869;28;20020;-72
2022/06/09 09:34:03;;;;;;;8.40;5.93;;;;;;;;;;5094344;28;20020;-73
2022/06/09 09:36:35;;;;;;;8.13;5.13;;;;;;;;;;5090716;28;20054;-72
2022/06/09 09:39:07;;;;;;;8.37;4.90;;;;;;;;;;5088732;28;20047;-72
2022/06/09 09:41:36;;;;;;;7.60;5.27;;;;;;;;;;5089308;28;20537;-72
2022/06/09 09:44:22;;;;;;;8.60;4.67;;;;;;;;;;5088992;28;20024;-72
2022/06/09 09:47:00;;;;;;;6.83;4.93;;;;;;;;;;5093141;28;20474;-72
2022/06/09 09:49:35;;;;;;;6.87;4.90;;;;;;;;;;5094711;28;20402;-72
2022/06/09 09:52:10;;;;;;;5.17;3.77;;;;;;;;;;5094395;28;20100;-72
2022/06/09 09:54:40;;;;;;;6.60;4.78;;;;;;;;;;5094175;28;20020;-72
2022/06/09 09:57:07;;;;;;;7.17;4.97;;;;;;;;;;5093707;28;20028;-72
2022/06/09 09:59:44;;;;;;;8.20;4.73;;;;;;;;;;5088216;28;20068;-72
2022/06/09 10:11:53;;;;;;;10.43;4.87;;;;;;;;;;5073507;28;20044;-71
2022/06/09 10:13:48;;;;;;;6.80;4.60;;;;;;;;;;5085786;28;20039;-72
2022/06/09 10:16:16;;;;;;;6.63;4.60;;;;;;;;;;5093856;28;20379;-73
2022/06/09 10:18:45;;;;;;;5.80;4.17;;;;;;;;;;5093740;28;20024;-72
2022/06/09 10:21:13;;;;;;;6.93;4.50;;;;;;;;;;5089316;28;20104;-72
2022/06/09 10:23:49;;;;;;;6.90;4.77;;;;;;;;;;5088302;28;20117;-72
2022/06/09 10:26:16;;;;;;;6.33;4.37;;;;;;;;;;5087881;28;20090;-72
2022/06/09 10:29:01;;;;;;;6.97;4.97;;;;;;;;;;5088098;28;20416;-72
2022/06/09 10:31:28;;;;;;;8.68;5.22;;;;;;;;;;5092225;28;20105;-73
2022/06/09 10:34:11;;;;;;;8.63;5.00;;;;;;;;;;5093647;28;20027;-72
2022/06/09 10:36:47;;;;;;;8.17;5.00;;;;;;;;;;5093352;28;20031;-72
2022/06/09 10:39:19;;;;;;;5.87;4.43;;;;;;;;;;5073001;28;20032;-73
2022/06/09 10:41:49;;;;;;;8.53;5.23;;;;;;;;;;5073142;28;20023;-72
2022/06/09 10:44:26;;;;;;;8.27;4.90;;;;;;;;;;5067282;28;20408;-72
2022/06/09 10:55:35;;;;;;;5.70;3.63;;;;;;;;;;5093117;28;20039;-72
2022/06/09 10:58:05;;;;;;;5.63;3.70;;;;;;;;;;5093162;28;20024;-72
2022/06/09 11:00:42;;;;;;;6.00;4.20;;;;;;;;;;5092802;28;20028;-72
2022/06/09 11:03:20;;;;;;;4.97;3.57;;;;;;;;;;5072383;28;20099;-72
2022/06/09 11:05:46;;;;;;;5.60;4.40;;;;;;;;;;5068491;28;20032;-72
2022/06/09 11:08:36;;;;;;;9.43;4.50;;;;;;;;;;5067385;28;20056;-72
2022/06/09 11:11:03;;;;;;;5.20;3.80;;;;;;;;;;5067366;28;20021;-72
2022/06/09 11:13:29;;;;;;;5.07;3.50;;;;;;;;;;5074988;28;20028;-72
2022/06/09 11:16:13;;;;;;;6.27;4.50;;;;;;;;;;5091536;28;20027;-72
2022/06/09 11:18:58;;;;;;;6.43;4.67;;;;;;;;;;5092491;28;20039;-72
2022/06/09 11:21:33;;;;;;;6.38;4.40;;;;;;;;;;5092645;28;20016;-72
2022/06/09 11:24:06;;;;;;;5.87;4.07;;;;;;;;;;5092739;28;20012;-72
2022/06/09 11:26:47;;;;;;;4.77;3.40;;;;;;;;;;5091552;28;20031;-72
2022/06/09 11:29:23;;;;;;;4.63;3.67;;;;;;;;;;5087177;28;20074;-72
2022/06/09 11:31:55;;;;;;;5.63;3.53;;;;;;;;;;5087132;28;20048;-72
2022/06/09 11:34:21;;;;;;;4.13;2.93;;;;;;;;;;5086750;28;20138;-72
2022/06/09 11:37:04;;;;;;;5.40;3.30;;;;;;;;;;5087994;28;20347;-72
2022/06/09 11:39:55;;;;;;;3.57;2.50;;;;;;;;;;5092194;28;20482;-72
2022/06/09 11:42:40;;;;;;;4.70;3.30;;;;;;;;;;5092479;28;20031;-73
2022/06/09 11:45:19;;;;;;;4.40;3.00;;;;;;;;;;5092402;28;20466;-71
2022/06/09 11:47:46;;;;;;;5.07;2.60;;;;;;;;;;5092449;28;20099;-72
2022/06/09 11:50:16;;;;;;;4.67;2.90;;;;;;;;;;5088422;28;20020;-72
2022/06/09 11:52:46;;;;;;;5.00;2.97;;;;;;;;;;5086629;28;20066;-72
2022/06/09 11:55:27;;;;;;;5.80;3.30;;;;;;;;;;5086047;28;20068;-72
2022/06/09 11:57:54;;;;;;;7.00;4.03;;;;;;;;;;5086405;28;20016;-72
2022/06/09 12:00:22;;;;;;;9.10;3.57;;;;;;;;;;5090660;28;20032;-72
2022/06/09 12:03:06;;;;;;;4.07;3.03;;;;;;;;;;5092167;28;20059;-72
2022/06/09 12:05:36;;;;;;;8.63;2.92;;;;;;;;;;5092127;28;20487;-72
2022/06/09 12:08:03;;;;;;;4.77;3.00;;;;;;;;;;5091423;28;20509;-72
2022/06/09 12:10:38;;;;;;;4.23;2.70;;;;;;;;;;5092000;28;20371;-72
2022/06/09 12:13:25;;;;;;;5.03;3.13;;;;;;;;;;5086688;28;20027;-72
2022/06/09 12:15:52;;;;;;;5.13;2.80;;;;;;;;;;5086856;28;20153;-72
2022/06/09 12:18:19;;;;;;;4.80;3.03;;;;;;;;;;5086088;28;20502;-72
2022/06/09 12:20:49;;;;;;;7.13;3.00;;;;;;;;;;5086316;28;20059;-72
2022/06/09 12:23:24;;;;;;;4.13;2.83;;;;;;;;;;5091976;28;20061;-72
2022/06/09 12:26:09;;;;;;;4.13;2.70;;;;;;;;;;5092002;28;20072;-72
2022/06/09 12:28:46;;;;;;;4.55;2.97;;;;;;;;;;5091431;28;20073;-72
2022/06/09 12:31:15;;;;;;;5.57;3.37;;;;;;;;;;5091420;28;20479;-72
2022/06/09 12:33:50;;;;;;;4.80;3.03;;;;;;;;;;5090309;28;20020;-72
2022/06/09 12:36:29;;;;;;;6.40;3.47;;;;;;;;;;5086754;28;20110;-72
2022/06/09 12:38:57;;;;;;;5.37;3.70;;;;;;;;;;5086265;28;20032;-72
2022/06/09 12:41:30;;;;;;;5.30;3.77;;;;;;;;;;5086021;28;20039;-72
2022/06/09 12:44:06;;;;;;;6.87;3.80;;;;;;;;;;5088000;28;20032;-72
2022/06/09 12:46:33;;;;;;;10.93;4.40;;;;;;;;;;5091816;28;20048;-72
2022/06/09 12:49:00;;;;;;;8.07;4.10;;;;;;;;;;5091309;28;20356;-72
2022/06/09 12:51:29;;;;;;;5.50;3.87;;;;;;;;;;5091723;28;20028;-72
2022/06/09 12:53:59;;;;;;;14.43;4.33;;;;;;;;;;5091488;28;20024;-72
2022/06/09 12:56:25;;;;;;;7.17;4.97;;;;;;;;;;5089108;28;20558;-72
2022/06/09 12:58:54;;;;;;;9.07;5.83;;;;;;;;;;5086228;28;20440;-72
2022/06/09 13:01:23;;;;;;;6.20;4.77;;;;;;;;;;5086066;28;20475;-72
2022/06/09 13:03:53;;;;;;;6.17;4.63;;;;;;;;;;5085909;28;20144;-72
2022/06/09 13:06:22;;;;;;;5.67;4.47;;;;;;;;;;5088264;28;20431;-72
2022/06/09 13:08:50;;;;;;;9.20;4.17;;;;;;;;;;5094932;28;20060;-76
2022/06/09 13:14:15;;;;;;;7.07;5.63;;;;;;;;;;5095196;28;20101;-76
2022/06/09 13:16:46;;;;;;;7.50;5.90;;;;;;;;;;5094660;28;20099;-76
2022/06/09 13:19:14;;;;;;;11.10;6.63;;;;;;;;;;5090869;28;20036;-76
2022/06/09 13:21:42;;;;;;;9.80;6.57;;;;;;;;;;5089660;28;20119;-77
2022/06/09 13:24:29;;;;;;;9.20;6.40;;;;;;;;;;5089230;28;20374;-76
2022/06/09 13:26:56;;;;;;;8.27;5.87;;;;;;;;;;5069142;28;20107;-76
2022/06/09 13:29:25;;;;;;;6.37;4.67;;;;;;;;;;5073697;28;20083;-77
2022/06/09 13:31:54;;;;;;;6.20;3.87;;;;;;;;;;5094651;28;20028;-77
2022/06/09 13:34:25;;;;;;;8.47;3.43;;;;;;;;;;5094767;28;20130;-76
2022/06/09 13:36:55;;;;;;;5.33;3.37;;;;;;;;;;5094426;28;20073;-76
2022/06/09 13:39:28;;;;;;;5.43;3.80;;;;;;;;;;5093312;28;20036;-76
2022/06/09 13:42:06;;;;;;;5.33;3.77;;;;;;;;;;5089823;28;20024;-76
2022/06/09 13:44:38;;;;;;;4.90;3.50;;;;;;;;;;5088989;28;20024;-76
2022/06/09 13:47:13;;;;;;;5.67;3.60;;;;;;;;;;5088901;28;20020;-76
2022/06/09 13:49:42;;;;;;;4.93;3.53;;;;;;;;;;5088520;28;20081;-76
2022/06/09 13:52:27;;;;;;;4.60;3.67;;;;;;;;;;5093498;28;20016;-77
2022/06/09 13:54:55;;;;;;;4.53;3.17;;;;;;;;;;5093864;28;20104;-77
2022/06/09 13:57:31;;;;;;;4.30;3.00;;;;;;;;;;5094190;28;20044;-76
2022/06/09 13:59:58;;;;;;;5.07;3.97;;;;;;;;;;5093649;28;20071;-77
2022/06/09 14:02:27;;;;;;;6.07;3.40;;;;;;;;;;5093427;28;20046;-76
2022/06/09 14:04:54;;;;;;;4.00;2.80;;;;;;;;;;5088419;28;20513;-76
2022/06/09 14:07:23;;;;;;;3.80;2.93;;;;;;;;;;5088131;28;20024;-77
2022/06/09 14:09:51;;;;;;;6.17;3.70;;;;;;;;;;5087815;28;20056;-76
2022/06/09 14:12:18;;;;;;;5.37;3.70;;;;;;;;;;5088286;28;20016;-76
2022/06/09 14:14:45;;;;;;;3.83;3.10;;;;;;;;;;5094027;28;20058;-76
2022/06/09 14:17:28;;;;;;;3.90;2.73;;;;;;;;;;5093469;28;20032;-77
2022/06/09 14:19:55;;;;;;;5.90;3.03;;;;;;;;;;5093325;28;20028;-77
2022/06/09 14:22:21;;;;;;;4.10;2.97;;;;;;;;;;5093605;28;20069;-76
2022/06/09 14:24:48;;;;;;;6.93;3.60;;;;;;;;;;5093014;28;20063;-77
2022/06/09 14:27:15;;;;;;;5.77;3.77;;;;;;;;;;5087857;28;20479;-76
2022/06/09 14:29:42;;;;;;;4.13;3.00;;;;;;;;;;5088074;28;20028;-77
2022/06/09 14:32:20;;;;;;;5.13;3.23;;;;;;;;;;5087952;28;20081;-77
2022/06/09 14:34:47;;;;;;;8.37;3.73;;;;;;;;;;5087833;28;20073;-77
2022/06/09 14:37:14;;;;;;;4.90;3.47;;;;;;;;;;5093564;28;20491;-77
2022/06/09 14:39:42;;;;;;;4.60;2.67;;;;;;;;;;5075103;28;20459;-77
2022/06/09 14:42:14;;;;;;;6.23;3.10;;;;;;;;;;5093401;28;20016;-76
2022/06/09 14:44:41;;;;;;;5.53;2.70;;;;;;;;;;5093153;28;20379;-76
2022/06/09 14:47:22;;;;;;;3.80;2.60;;;;;;;;;;5091745;28;20063;-76
2022/06/09 14:49:49;;;;;;;4.00;2.90;;;;;;;;;;5087992;28;20371;-76
2022/06/09 14:52:17;;;;;;;4.10;2.63;;;;;;;;;;5087578;28;20151;-77
2022/06/09 14:54:44;;;;;;;4.90;2.90;;;;;;;;;;5087699;28;20026;-76
2022/06/09 14:57:13;;;;;;;4.03;2.70;;;;;;;;;;5087902;28;20035;-77
2022/06/09 14:59:39;;;;;;;4.57;3.00;;;;;;;;;;5072370;28;20029;-77
2022/06/09 15:02:06;;;;;;;4.47;3.10;;;;;;;;;;5072797;28;20027;-76
2022/06/09 15:04:34;;;;;;;6.20;3.40;;;;;;;;;;5072795;28;20032;-77
2022/06/09 15:07:01;;;;;;;4.37;3.20;;;;;;;;;;5072770;28;20028;-77
2022/06/09 15:09:27;;;;;;;4.20;3.00;;;;;;;;;;5075639;28;20024;-76
2022/06/09 15:11:54;;;;;;;3.93;3.10;;;;;;;;;;5087140;28;20043;-76
2022/06/09 15:14:21;;;;;;;5.03;3.70;;;;;;;;;;5087299;28;20059;-76
2022/06/09 15:16:48;;;;;;;4.87;3.00;;;;;;;;;;5086775;28;20031;-76
2022/06/09 15:19:15;;;;;;;8.10;3.40;;;;;;;;;;5087307;28;20059;-76
2022/06/09 15:21:42;;;;;;;3.87;2.97;;;;;;;;;;5092443;28;20038;-76
2022/06/09 15:24:09;;;;;;;4.00;2.90;;;;;;;;;;5092657;28;20371;-76